sensor_id;sensor_type;location;lat;lon;timestamp;pressure;altitude;pressure_sealevel;temperature;humidity
72857;BME280;61360;52.134;4.494;2022-07-29T00:00:37;101899.28;;;17.09;61.08
72857;BME280;61360;52.134;4.494;2022-07-29T00:03:03;101896.63;;;17.09;61.29
72857;BME280;61360;52.134;4.494;2022-07-29T00:05:30;101902.13;;;17.01;61.10
72857;BME280;61360;52.134;4.494;2022-07-29T00:07:56;101897.53;;;17.08;61.24
72857;BME280;61360;52.134;4.494;2022-07-29T00:10:23;101895.81;;;17.07;61.21
72857;BME280;61360;52.134;4.494;2022-07-29T00:12:49;101891.47;;;17.02;61.69
72857;BME280;61360;52.134;4.494;2022-07-29T00:15:16;101893.19;;;17.05;61.80
72857;BME280;61360;52.134;4.494;2022-07-29T00:17:42;101894.31;;;16.96;61.35
72857;BME280;61360;52.134;4.494;2022-07-29T00:20:09;101891.59;;;16.98;61.72
72857;BME280;61360;52.134;4.494;2022-07-29T00:22:39;101890.78;;;16.94;61.72
72857;BME280;61360;52.134;4.494;2022-07-29T00:25:06;101883.88;;;16.87;62.01
72857;BME280;61360;52.134;4.494;2022-07-29T00:27:35;101879.88;;;17.07;61.53
72857;BME280;61360;52.134;4.494;2022-07-29T00:30:04;101879.25;;;16.95;61.92
72857;BME280;61360;52.134;4.494;2022-07-29T00:32:32;101883.09;;;16.82;62.65
72857;BME280;61360;52.134;4.494;2022-07-29T00:34:59;101881.41;;;16.79;62.55
72857;BME280;61360;52.134;4.494;2022-07-29T00:37:44;101877.97;;;16.76;63.19
72857;BME280;61360;52.134;4.494;2022-07-29T00:40:11;101875.44;;;16.70;63.32
72857;BME280;61360;52.134;4.494;2022-07-29T00:42:42;101873.34;;;16.84;62.95
72857;BME280;61360;52.134;4.494;2022-07-29T00:45:10;101879.75;;;16.74;63.32
72857;BME280;61360;52.134;4.494;2022-07-29T00:47:38;101873.69;;;16.69;63.68
72857;BME280;61360;52.134;4.494;2022-07-29T00:50:06;101875.44;;;16.70;63.54
72857;BME280;61360;52.134;4.494;2022-07-29T00:52:35;101874.50;;;16.72;63.61
72857;BME280;61360;52.134;4.494;2022-07-29T00:55:05;101866.72;;;16.64;63.80
72857;BME280;61360;52.134;4.494;2022-07-29T00:57:35;101869.34;;;16.66;63.65
72857;BME280;61360;52.134;4.494;2022-07-29T01:00:08;101868.31;;;16.72;63.56
72857;BME280;61360;52.134;4.494;2022-07-29T01:02:38;101868.47;;;16.66;63.46
72857;BME280;61360;52.134;4.494;2022-07-29T01:05:05;101864.84;;;16.70;63.57
72857;BME280;61360;52.134;4.494;2022-07-29T01:07:34;101870.25;;;16.65;63.84
72857;BME280;61360;52.134;4.494;2022-07-29T01:10:06;101878.22;;;16.65;63.73
72857;BME280;61360;52.134;4.494;2022-07-29T01:12:37;101870.13;;;16.70;63.29
72857;BME280;61360;52.134;4.494;2022-07-29T01:15:06;101864.84;;;16.70;63.43
72857;BME280;61360;52.134;4.494;2022-07-29T01:20:40;101865.44;;;16.45;64.32
72857;BME280;61360;52.134;4.494;2022-07-29T01:23:43;101859.81;;;16.57;63.93
72857;BME280;61360;52.134;4.494;2022-07-29T01:26:42;101856.06;;;16.66;63.36
72857;BME280;61360;52.134;4.494;2022-07-29T01:29:17;101849.34;;;16.51;64.27
72857;BME280;61360;52.134;4.494;2022-07-29T01:31:58;101849.34;;;16.51;63.58
72857;BME280;61360;52.134;4.494;2022-07-29T01:34:41;101850.28;;;16.50;64.05
72857;BME280;61360;52.134;4.494;2022-07-29T01:37:34;101851.97;;;16.53;63.85
72857;BME280;61360;52.134;4.494;2022-07-29T01:40:11;101856.34;;;16.55;63.68
72857;BME280;61360;52.134;4.494;2022-07-29T01:42:51;101852.19;;;16.45;63.70
72857;BME280;61360;52.134;4.494;2022-07-29T01:45:49;101850.25;;;16.52;63.67
72857;BME280;61360;52.134;4.494;2022-07-29T01:48:23;101848.66;;;16.43;63.99
72857;BME280;61360;52.134;4.494;2022-07-29T01:51:13;101845.22;;;16.39;64.41
72857;BME280;61360;52.134;4.494;2022-07-29T01:57:03;101839.53;;;16.55;63.89
72857;BME280;61360;52.134;4.494;2022-07-29T01:59:35;101838.81;;;16.48;64.18
72857;BME280;61360;52.134;4.494;2022-07-29T02:02:05;101834.31;;;16.52;63.41
72857;BME280;61360;52.134;4.494;2022-07-29T02:04:36;101823.13;;;16.39;64.19
72857;BME280;61360;52.134;4.494;2022-07-29T02:07:07;101824.13;;;16.35;64.25
72857;BME280;61360;52.134;4.494;2022-07-29T02:09:41;101831.91;;;16.41;63.68
72857;BME280;61360;52.134;4.494;2022-07-29T02:12:10;101835.50;;;16.40;63.79
72857;BME280;61360;52.134;4.494;2022-07-29T02:14:51;101826.59;;;16.41;63.75
72857;BME280;61360;52.134;4.494;2022-07-29T02:17:25;101827.63;;;16.35;64.06
72857;BME280;61360;52.134;4.494;2022-07-29T02:19:57;101823.84;;;16.45;64.03
72857;BME280;61360;52.134;4.494;2022-07-29T02:22:28;101821.66;;;16.25;64.79
72857;BME280;61360;52.134;4.494;2022-07-29T02:24:58;101821.56;;;16.30;64.63
72857;BME280;61360;52.134;4.494;2022-07-29T02:27:26;101823.94;;;16.41;64.04
72857;BME280;61360;52.134;4.494;2022-07-29T02:29:57;101825.84;;;16.36;64.72
72857;BME280;61360;52.134;4.494;2022-07-29T02:32:27;101825.09;;;16.31;65.07
72857;BME280;61360;52.134;4.494;2022-07-29T02:34:56;101816.25;;;16.30;65.18
72857;BME280;61360;52.134;4.494;2022-07-29T02:37:26;101821.06;;;16.52;63.94
72857;BME280;61360;52.134;4.494;2022-07-29T02:39:54;101817.31;;;16.60;63.58
72857;BME280;61360;52.134;4.494;2022-07-29T02:42:24;101826.31;;;16.53;63.61
72857;BME280;61360;52.134;4.494;2022-07-29T02:44:53;101818.47;;;16.49;63.76
72857;BME280;61360;52.134;4.494;2022-07-29T02:47:31;101834.31;;;16.52;63.92
72857;BME280;61360;52.134;4.494;2022-07-29T02:50:15;101824.69;;;16.48;64.25
72857;BME280;61360;52.134;4.494;2022-07-29T02:53:05;101828.56;;;16.33;64.55
72857;BME280;61360;52.134;4.494;2022-07-29T02:56:01;101824.81;;;16.41;64.45
72857;BME280;61360;52.134;4.494;2022-07-29T02:58:39;101825.25;;;16.24;65.01
72857;BME280;61360;52.134;4.494;2022-07-29T03:01:15;101827.59;;;16.37;64.41
72857;BME280;61360;52.134;4.494;2022-07-29T03:03:46;101821.81;;;16.19;65.72
72857;BME280;61360;52.134;4.494;2022-07-29T03:06:17;101822.72;;;16.18;65.66
72857;BME280;61360;52.134;4.494;2022-07-29T03:08:46;101825.88;;;16.34;65.36
72857;BME280;61360;52.134;4.494;2022-07-29T03:11:15;101825.84;;;16.36;65.29
72857;BME280;61360;52.134;4.494;2022-07-29T03:13:43;101823.34;;;16.30;65.17
72857;BME280;61360;52.134;4.494;2022-07-29T03:16:11;101819.84;;;16.27;65.28
72857;BME280;61360;52.134;4.494;2022-07-29T03:18:39;101819.53;;;16.04;65.07
72857;BME280;61360;52.134;4.494;2022-07-29T03:21:06;101816.91;;;16.02;65.09
72857;BME280;61360;52.134;4.494;2022-07-29T03:23:35;101816.69;;;16.12;64.62
72857;BME280;61360;52.134;4.494;2022-07-29T03:26:01;101811.56;;;16.04;65.11
72857;BME280;61360;52.134;4.494;2022-07-29T03:28:29;101806.41;;;15.98;65.28
72857;BME280;61360;52.134;4.494;2022-07-29T03:30:55;101796.53;;;16.04;64.84
72857;BME280;61360;52.134;4.494;2022-07-29T03:33:22;101800.69;;;16.16;64.64
72857;BME280;61360;52.134;4.494;2022-07-29T03:35:48;101799.34;;;15.97;64.89
72857;BME280;61360;52.134;4.494;2022-07-29T03:38:15;101806.94;;;16.12;64.47
72857;BME280;61360;52.134;4.494;2022-07-29T03:40:46;101800.22;;;15.99;65.23
72857;BME280;61360;52.134;4.494;2022-07-29T03:43:18;101802.03;;;15.95;65.28
72857;BME280;61360;52.134;4.494;2022-07-29T03:45:52;101801.00;;;16.02;64.40
72857;BME280;61360;52.134;4.494;2022-07-29T03:48:22;101810.63;;;16.06;64.53
72857;BME280;61360;52.134;4.494;2022-07-29T03:50:51;101800.97;;;16.04;64.57
72857;BME280;61360;52.134;4.494;2022-07-29T03:53:18;101797.41;;;16.05;65.04
72857;BME280;61360;52.134;4.494;2022-07-29T03:55:47;101803.03;;;15.89;65.70
72857;BME280;61360;52.134;4.494;2022-07-29T03:58:18;101806.47;;;15.95;65.50
72857;BME280;61360;52.134;4.494;2022-07-29T04:00:46;101803.81;;;15.95;65.43
72857;BME280;61360;52.134;4.494;2022-07-29T04:03:13;101801.09;;;15.98;65.28
72857;BME280;61360;52.134;4.494;2022-07-29T04:05:40;101806.34;;;16.01;65.24
72857;BME280;61360;52.134;4.494;2022-07-29T04:08:06;101808.25;;;15.94;65.31
72857;BME280;61360;52.134;4.494;2022-07-29T04:10:33;101806.63;;;15.88;65.51
72857;BME280;61360;52.134;4.494;2022-07-29T04:12:59;101808.63;;;15.77;65.83
72857;BME280;61360;52.134;4.494;2022-07-29T04:15:26;101813.75;;;15.85;65.81
72857;BME280;61360;52.134;4.494;2022-07-29T04:17:55;101816.03;;;16.00;65.46
72857;BME280;61360;52.134;4.494;2022-07-29T04:20:21;101813.75;;;15.85;65.80
72857;BME280;61360;52.134;4.494;2022-07-29T04:22:48;101811.75;;;15.95;65.48
72857;BME280;61360;52.134;4.494;2022-07-29T04:25:14;101805.66;;;15.91;65.76
72857;BME280;61360;52.134;4.494;2022-07-29T04:27:41;101802.34;;;15.81;66.44
72857;BME280;61360;52.134;4.494;2022-07-29T04:30:27;101797.81;;;15.86;66.36
72857;BME280;61360;52.134;4.494;2022-07-29T04:32:54;101803.78;;;15.96;66.14
72857;BME280;61360;52.134;4.494;2022-07-29T04:35:21;101799.56;;;15.87;66.38
72857;BME280;61360;52.134;4.494;2022-07-29T04:37:47;101804.66;;;15.97;66.02
72857;BME280;61360;52.134;4.494;2022-07-29T04:40:14;101801.38;;;15.85;66.45
72857;BME280;61360;52.134;4.494;2022-07-29T04:42:41;101804.63;;;15.98;66.07
72857;BME280;61360;52.134;4.494;2022-07-29T04:45:07;101795.09;;;15.89;66.68
72857;BME280;61360;52.134;4.494;2022-07-29T04:47:34;101805.41;;;16.02;66.07
72857;BME280;61360;52.134;4.494;2022-07-29T04:50:01;101803.72;;;15.99;66.37
72857;BME280;61360;52.134;4.494;2022-07-29T04:52:28;101804.84;;;15.89;66.62
72857;BME280;61360;52.134;4.494;2022-07-29T04:54:54;101800.56;;;15.83;67.15
72857;BME280;61360;52.134;4.494;2022-07-29T04:57:21;101799.81;;;15.77;67.81
72857;BME280;61360;52.134;4.494;2022-07-29T04:59:48;101803.19;;;15.83;67.49
72857;BME280;61360;52.134;4.494;2022-07-29T05:02:15;101806.63;;;15.88;67.33
72857;BME280;61360;52.134;4.494;2022-07-29T05:04:41;101801.66;;;16.48;66.10
72857;BME280;61360;52.134;4.494;2022-07-29T05:07:08;101802.00;;;17.05;64.19
72857;BME280;61360;52.134;4.494;2022-07-29T05:09:34;101798.13;;;17.16;64.22
72857;BME280;61360;52.134;4.494;2022-07-29T05:12:01;101804.06;;;17.26;63.03
72857;BME280;61360;52.134;4.494;2022-07-29T05:14:27;101802.91;;;17.36;63.41
72857;BME280;61360;52.134;4.494;2022-07-29T05:16:54;101808.09;;;17.41;64.08
72857;BME280;61360;52.134;4.494;2022-07-29T05:19:23;101802.66;;;17.46;63.28
72857;BME280;61360;52.134;4.494;2022-07-29T05:21:49;101800.28;;;17.66;63.12
72857;BME280;61360;52.134;4.494;2022-07-29T05:24:16;101806.66;;;17.59;63.22
72857;BME280;61360;52.134;4.494;2022-07-29T05:26:42;101805.94;;;17.54;63.78
72857;BME280;61360;52.134;4.494;2022-07-29T05:29:09;101814.84;;;17.53;63.44
72857;BME280;61360;52.134;4.494;2022-07-29T05:31:37;101818.31;;;17.55;63.50
72857;BME280;61360;52.134;4.494;2022-07-29T05:34:03;101822.63;;;18.19;62.34
72857;BME280;61360;52.134;4.494;2022-07-29T05:36:30;101821.44;;;19.08;59.74
72857;BME280;61360;52.134;4.494;2022-07-29T05:38:56;101817.13;;;20.23;57.30
72857;BME280;61360;52.134;4.494;2022-07-29T05:41:23;101815.59;;;21.03;54.43
72857;BME280;61360;52.134;4.494;2022-07-29T05:43:50;101816.78;;;21.76;52.49
72857;BME280;61360;52.134;4.494;2022-07-29T05:46:16;101814.41;;;22.07;50.73
72857;BME280;61360;52.134;4.494;2022-07-29T05:48:43;101819.81;;;22.43;50.87
72857;BME280;61360;52.134;4.494;2022-07-29T05:51:09;101821.38;;;22.30;49.43
72857;BME280;61360;52.134;4.494;2022-07-29T05:53:36;101813.19;;;21.95;49.55
72857;BME280;61360;52.134;4.494;2022-07-29T05:56:04;101807.91;;;21.74;50.93
72857;BME280;61360;52.134;4.494;2022-07-29T05:58:31;101806.72;;;21.42;51.35
72857;BME280;61360;52.134;4.494;2022-07-29T06:00:58;101809.53;;;21.59;51.67
72857;BME280;61360;52.134;4.494;2022-07-29T06:03:27;101810.91;;;21.49;51.50
72857;BME280;61360;52.134;4.494;2022-07-29T06:05:55;101822.28;;;21.13;52.99
72857;BME280;61360;52.134;4.494;2022-07-29T06:08:21;101820.28;;;20.98;53.62
72857;BME280;61360;52.134;4.494;2022-07-29T06:10:48;101820.00;;;20.83;54.55
72857;BME280;61360;52.134;4.494;2022-07-29T06:13:15;101813.59;;;20.87;53.04
72857;BME280;61360;52.134;4.494;2022-07-29T06:15:42;101823.38;;;20.44;54.95
72857;BME280;61360;52.134;4.494;2022-07-29T06:18:09;101821.72;;;20.42;54.95
72857;BME280;61360;52.134;4.494;2022-07-29T06:20:36;101824.28;;;20.45;54.30
72857;BME280;61360;52.134;4.494;2022-07-29T06:23:03;101830.69;;;20.61;54.48
72857;BME280;61360;52.134;4.494;2022-07-29T06:25:30;101822.78;;;20.80;54.00
72857;BME280;61360;52.134;4.494;2022-07-29T06:28:00;101820.56;;;21.31;53.12
72857;BME280;61360;52.134;4.494;2022-07-29T06:30:27;101813.34;;;21.33;52.45
72857;BME280;61360;52.134;4.494;2022-07-29T06:32:55;101829.19;;;21.58;52.74
72857;BME280;61360;52.134;4.494;2022-07-29T06:35:21;101827.94;;;21.46;52.67
72857;BME280;61360;52.134;4.494;2022-07-29T06:37:48;101832.69;;;21.19;54.26
72857;BME280;61360;52.134;4.494;2022-07-29T06:40:14;101835.53;;;20.73;54.47
72857;BME280;61360;52.134;4.494;2022-07-29T06:42:59;101833.72;;;21.17;54.68
72857;BME280;61360;52.134;4.494;2022-07-29T06:45:26;101828.72;;;21.48;52.94
72857;BME280;61360;52.134;4.494;2022-07-29T06:47:52;101832.00;;;21.74;51.47
72857;BME280;61360;52.134;4.494;2022-07-29T06:50:19;101834.34;;;21.42;51.98
72857;BME280;61360;52.134;4.494;2022-07-29T06:52:47;101839.00;;;20.98;52.87
72857;BME280;61360;52.134;4.494;2022-07-29T06:55:14;101842.09;;;21.48;52.40
72857;BME280;61360;52.134;4.494;2022-07-29T06:57:40;101843.56;;;21.56;52.62
72857;BME280;61360;52.134;4.494;2022-07-29T07:00:08;101844.72;;;21.69;52.67
72857;BME280;61360;52.134;4.494;2022-07-29T07:02:35;101840.91;;;21.56;52.59
72857;BME280;61360;52.134;4.494;2022-07-29T07:05:02;101843.16;;;20.62;52.69
72857;BME280;61360;52.134;4.494;2022-07-29T07:07:28;101850.06;;;20.88;55.05
72857;BME280;61360;52.134;4.494;2022-07-29T07:09:55;101851.16;;;21.05;54.31
72857;BME280;61360;52.134;4.494;2022-07-29T07:12:22;101846.84;;;20.80;54.31
72857;BME280;61360;52.134;4.494;2022-07-29T07:14:48;101855.28;;;21.12;53.87
72857;BME280;61360;52.134;4.494;2022-07-29T07:17:15;101846.41;;;20.91;54.34
72857;BME280;61360;52.134;4.494;2022-07-29T07:19:41;101861.53;;;20.90;55.86
72857;BME280;61360;52.134;4.494;2022-07-29T07:22:08;101861.16;;;21.00;53.39
72857;BME280;61360;52.134;4.494;2022-07-29T07:24:34;101861.50;;;20.70;52.96
72857;BME280;61360;52.134;4.494;2022-07-29T07:27:01;101858.13;;;20.87;54.00
72857;BME280;61360;52.134;4.494;2022-07-29T07:29:27;101859.09;;;21.06;52.76
72857;BME280;61360;52.134;4.494;2022-07-29T07:31:54;101855.44;;;20.66;53.80
72857;BME280;61360;52.134;4.494;2022-07-29T07:34:21;101862.19;;;20.53;55.62
72857;BME280;61360;52.134;4.494;2022-07-29T07:36:47;101860.56;;;20.49;55.69
72857;BME280;61360;52.134;4.494;2022-07-29T07:39:14;101854.06;;;20.78;54.76
72857;BME280;61360;52.134;4.494;2022-07-29T07:41:40;101865.13;;;20.47;55.05
72857;BME280;61360;52.134;4.494;2022-07-29T07:44:07;101862.66;;;20.64;54.91
72857;BME280;61360;52.134;4.494;2022-07-29T07:46:33;101851.06;;;20.86;55.08
72857;BME280;61360;52.134;4.494;2022-07-29T07:49:00;101855.19;;;20.72;53.52
72857;BME280;61360;52.134;4.494;2022-07-29T07:51:26;101856.59;;;20.59;54.81
72857;BME280;61360;52.134;4.494;2022-07-29T07:53:53;101857.31;;;20.64;54.86
72857;BME280;61360;52.134;4.494;2022-07-29T07:56:20;101860.56;;;20.93;54.88
72857;BME280;61360;52.134;4.494;2022-07-29T07:58:46;101856.50;;;21.05;54.56
72857;BME280;61360;52.134;4.494;2022-07-29T08:01:13;101862.03;;;21.21;54.63
72857;BME280;61360;52.134;4.494;2022-07-29T08:03:39;101854.50;;;21.70;53.71
72857;BME280;61360;52.134;4.494;2022-07-29T08:06:06;101852.06;;;22.03;53.56
72857;BME280;61360;52.134;4.494;2022-07-29T08:08:33;101851.56;;;21.95;54.79
72857;BME280;61360;52.134;4.494;2022-07-29T08:10:59;101850.75;;;22.12;53.96
72857;BME280;61360;52.134;4.494;2022-07-29T08:13:28;101859.25;;;22.20;53.75
72857;BME280;61360;52.134;4.494;2022-07-29T08:15:56;101863.69;;;22.21;53.78
72857;BME280;61360;52.134;4.494;2022-07-29T08:18:24;101864.75;;;22.55;52.89
72857;BME280;61360;52.134;4.494;2022-07-29T08:20:53;101862.34;;;22.86;52.76
72857;BME280;61360;52.134;4.494;2022-07-29T08:23:20;101860.19;;;22.75;52.17
72857;BME280;61360;52.134;4.494;2022-07-29T08:25:46;101855.22;;;22.50;52.38
72857;BME280;61360;52.134;4.494;2022-07-29T08:28:13;101850.06;;;22.26;54.46
72857;BME280;61360;52.134;4.494;2022-07-29T08:30:40;101851.69;;;23.02;53.13
72857;BME280;61360;52.134;4.494;2022-07-29T08:33:06;101854.03;;;22.90;51.28
72857;BME280;61360;52.134;4.494;2022-07-29T08:35:33;101858.19;;;23.15;51.47
72857;BME280;61360;52.134;4.494;2022-07-29T08:38:00;101849.16;;;23.16;52.06
72857;BME280;61360;52.134;4.494;2022-07-29T08:40:26;101852.97;;;23.63;50.78
72857;BME280;61360;52.134;4.494;2022-07-29T08:42:53;101858.66;;;23.23;51.29
72857;BME280;61360;52.134;4.494;2022-07-29T08:45:20;101859.97;;;23.32;53.33
72857;BME280;61360;52.134;4.494;2022-07-29T08:47:49;101856.50;;;23.79;51.18
72857;BME280;61360;52.134;4.494;2022-07-29T08:50:16;101865.13;;;23.52;50.64
72857;BME280;61360;52.134;4.494;2022-07-29T08:52:43;101859.03;;;23.15;51.28
72857;BME280;61360;52.134;4.494;2022-07-29T08:55:10;101867.53;;;22.89;50.67
72857;BME280;61360;52.134;4.494;2022-07-29T08:57:38;101866.91;;;23.36;51.91
72857;BME280;61360;52.134;4.494;2022-07-29T09:00:06;101868.56;;;22.86;51.31
72857;BME280;61360;52.134;4.494;2022-07-29T09:02:44;101864.59;;;23.46;49.73
72857;BME280;61360;52.134;4.494;2022-07-29T09:05:17;101865.94;;;23.70;49.62
72857;BME280;61360;52.134;4.494;2022-07-29T09:07:45;101863.25;;;23.88;49.90
72857;BME280;61360;52.134;4.494;2022-07-29T09:10:13;101857.50;;;24.10;48.54
72857;BME280;61360;52.134;4.494;2022-07-29T09:12:40;101854.44;;;23.68;49.68
72857;BME280;61360;52.134;4.494;2022-07-29T09:15:07;101855.59;;;23.96;48.84
72857;BME280;61360;52.134;4.494;2022-07-29T09:17:49;101846.88;;;24.24;49.99
72857;BME280;61360;52.134;4.494;2022-07-29T09:20:17;101850.16;;;24.30;46.76
72857;BME280;61360;52.134;4.494;2022-07-29T09:22:51;101852.41;;;24.83;47.39
72857;BME280;61360;52.134;4.494;2022-07-29T09:25:38;101856.50;;;24.13;47.93
72857;BME280;61360;52.134;4.494;2022-07-29T09:28:14;101858.56;;;24.39;47.12
72857;BME280;61360;52.134;4.494;2022-07-29T09:30:53;101850.44;;;24.09;47.42
72857;BME280;61360;52.134;4.494;2022-07-29T09:33:22;101853.28;;;24.22;47.52
72857;BME280;61360;52.134;4.494;2022-07-29T09:36:09;101848.75;;;24.38;46.83
72857;BME280;61360;52.134;4.494;2022-07-29T09:38:37;101850.44;;;24.71;46.84
72857;BME280;61360;52.134;4.494;2022-07-29T09:41:04;101851.88;;;24.93;47.87
72857;BME280;61360;52.134;4.494;2022-07-29T09:43:32;101853.13;;;25.61;46.32
72857;BME280;61360;52.134;4.494;2022-07-29T09:46:13;101850.78;;;25.69;45.09
72857;BME280;61360;52.134;4.494;2022-07-29T09:48:40;101847.72;;;25.75;44.00
72857;BME280;61360;52.134;4.494;2022-07-29T09:51:18;101844.22;;;26.16;44.98
72857;BME280;61360;52.134;4.494;2022-07-29T09:53:45;101841.41;;;25.47;42.05
72857;BME280;61360;52.134;4.494;2022-07-29T09:56:12;101847.25;;;25.68;42.98
72857;BME280;61360;52.134;4.494;2022-07-29T09:58:40;101846.56;;;25.79;42.29
72857;BME280;61360;52.134;4.494;2022-07-29T10:01:06;101843.28;;;26.03;42.36
72857;BME280;61360;52.134;4.494;2022-07-29T10:03:53;101844.66;;;26.23;40.44
72857;BME280;61360;52.134;4.494;2022-07-29T10:06:20;101844.59;;;26.10;42.81
72857;BME280;61360;52.134;4.494;2022-07-29T10:08:47;101847.94;;;25.57;41.71
72857;BME280;61360;52.134;4.494;2022-07-29T10:11:17;101843.28;;;25.88;44.13
72857;BME280;61360;52.134;4.494;2022-07-29T10:13:47;101845.59;;;26.09;42.46
72857;BME280;61360;52.134;4.494;2022-07-29T10:16:16;101847.44;;;26.36;42.79
72857;BME280;61360;52.134;4.494;2022-07-29T10:18:44;101847.25;;;26.79;40.90
72857;BME280;61360;52.134;4.494;2022-07-29T10:21:13;101845.34;;;27.06;40.32
72857;BME280;61360;52.134;4.494;2022-07-29T10:23:40;101844.69;;;27.16;39.57
72857;BME280;61360;52.134;4.494;2022-07-29T10:26:10;101838.22;;;27.57;38.47
72857;BME280;61360;52.134;4.494;2022-07-29T10:28:37;101839.09;;;27.45;39.58
72857;BME280;61360;52.134;4.494;2022-07-29T10:31:06;101833.91;;;27.03;38.75
72857;BME280;61360;52.134;4.494;2022-07-29T10:36:53;101837.16;;;27.47;39.35
72857;BME280;61360;52.134;4.494;2022-07-29T10:42:21;101845.00;;;27.75;38.00
72857;BME280;61360;52.134;4.494;2022-07-29T10:44:54;101833.06;;;28.52;36.33
72857;BME280;61360;52.134;4.494;2022-07-29T10:47:25;101835.63;;;27.17;37.44
72857;BME280;61360;52.134;4.494;2022-07-29T10:50:01;101837.97;;;26.83;38.31
72857;BME280;61360;52.134;4.494;2022-07-29T10:52:56;101827.41;;;27.57;36.85
72857;BME280;61360;52.134;4.494;2022-07-29T10:55:36;101819.88;;;28.12;37.85
72857;BME280;61360;52.134;4.494;2022-07-29T10:58:19;101821.81;;;28.34;37.42
72857;BME280;61360;52.134;4.494;2022-07-29T11:00:49;101815.75;;;28.79;36.38
72857;BME280;61360;52.134;4.494;2022-07-29T11:03:45;101817.38;;;28.92;36.93
72857;BME280;61360;52.134;4.494;2022-07-29T11:06:13;101821.00;;;29.27;36.81
72857;BME280;61360;52.134;4.494;2022-07-29T11:08:40;101824.53;;;28.58;35.61
72857;BME280;61360;52.134;4.494;2022-07-29T11:13:47;101813.91;;;28.90;36.24
72857;BME280;61360;52.134;4.494;2022-07-29T11:16:20;101813.91;;;28.90;35.98
72857;BME280;61360;52.134;4.494;2022-07-29T11:21:41;101824.66;;;28.68;37.70
72857;BME280;61360;52.134;4.494;2022-07-29T11:24:28;101812.91;;;28.80;36.62
72857;BME280;61360;52.134;4.494;2022-07-29T11:27:17;101806.88;;;28.88;36.55
72857;BME280;61360;52.134;4.494;2022-07-29T11:29:55;101814.16;;;28.87;35.62
72857;BME280;61360;52.134;4.494;2022-07-29T11:32:24;101810.03;;;29.62;35.78
72857;BME280;61360;52.134;4.494;2022-07-29T11:35:19;101804.88;;;29.82;34.89
72857;BME280;61360;52.134;4.494;2022-07-29T11:38:26;101804.84;;;29.14;35.49
72857;BME280;61360;52.134;4.494;2022-07-29T11:41:29;101796.50;;;29.62;33.97
72857;BME280;61360;52.134;4.494;2022-07-29T11:44:01;101813.72;;;29.73;33.93
72857;BME280;61360;52.134;4.494;2022-07-29T11:46:47;101805.34;;;30.31;34.57
72857;BME280;61360;52.134;4.494;2022-07-29T11:49:26;101811.25;;;29.92;33.02
72857;BME280;61360;52.134;4.494;2022-07-29T11:51:55;101809.91;;;29.98;33.34
72857;BME280;61360;52.134;4.494;2022-07-29T11:54:34;101815.94;;;30.01;33.58
72857;BME280;61360;52.134;4.494;2022-07-29T11:57:01;101812.44;;;29.99;34.26
72857;BME280;61360;52.134;4.494;2022-07-29T11:59:28;101818.25;;;29.04;33.34
72857;BME280;61360;52.134;4.494;2022-07-29T12:01:59;101808.28;;;30.07;31.70
72857;BME280;61360;52.134;4.494;2022-07-29T12:04:26;101812.69;;;30.51;31.31
72857;BME280;61360;52.134;4.494;2022-07-29T12:06:54;101819.75;;;30.43;32.00
72857;BME280;61360;52.134;4.494;2022-07-29T12:09:23;101816.72;;;30.57;31.38
72857;BME280;61360;52.134;4.494;2022-07-29T12:11:59;101807.84;;;29.45;32.80
72857;BME280;61360;52.134;4.494;2022-07-29T12:14:29;101819.34;;;28.55;35.13
72857;BME280;61360;52.134;4.494;2022-07-29T12:16:58;101813.13;;;29.58;32.85
72857;BME280;61360;52.134;4.494;2022-07-29T12:19:26;101815.66;;;30.05;33.09
72857;BME280;61360;52.134;4.494;2022-07-29T12:21:54;101814.72;;;29.83;32.60
72857;BME280;61360;52.134;4.494;2022-07-29T12:24:23;101827.53;;;29.47;34.33
72857;BME280;61360;52.134;4.494;2022-07-29T12:26:55;101822.00;;;28.79;36.94
72857;BME280;61360;52.134;4.494;2022-07-29T12:29:23;101826.09;;;28.96;35.54
72857;BME280;61360;52.134;4.494;2022-07-29T12:31:53;101822.31;;;28.15;36.58
72857;BME280;61360;52.134;4.494;2022-07-29T12:34:22;101822.75;;;29.28;36.57
72857;BME280;61360;52.134;4.494;2022-07-29T12:36:52;101824.06;;;30.01;35.21
72857;BME280;61360;52.134;4.494;2022-07-29T12:39:19;101827.41;;;29.60;35.16
72857;BME280;61360;52.134;4.494;2022-07-29T12:41:46;101826.69;;;28.88;34.26
72857;BME280;61360;52.134;4.494;2022-07-29T12:44:13;101823.09;;;28.52;35.29
72857;BME280;61360;52.134;4.494;2022-07-29T12:46:39;101825.38;;;28.59;36.15
72857;BME280;61360;52.134;4.494;2022-07-29T12:49:06;101827.31;;;29.50;33.93
72857;BME280;61360;52.134;4.494;2022-07-29T12:51:37;101820.16;;;29.49;34.69
72857;BME280;61360;52.134;4.494;2022-07-29T12:54:14;101825.06;;;28.75;35.82
72857;BME280;61360;52.134;4.494;2022-07-29T12:56:43;101826.03;;;29.43;34.47
72857;BME280;61360;52.134;4.494;2022-07-29T12:59:16;101820.88;;;29.85;34.14
72857;BME280;61360;52.134;4.494;2022-07-29T13:01:49;101819.00;;;30.08;35.19
72857;BME280;61360;52.134;4.494;2022-07-29T13:04:31;101822.72;;;28.70;37.44
72857;BME280;61360;52.134;4.494;2022-07-29T13:07:03;101815.94;;;29.79;36.88
72857;BME280;61360;52.134;4.494;2022-07-29T13:09:41;101814.50;;;29.52;36.06
72857;BME280;61360;52.134;4.494;2022-07-29T13:12:11;101811.91;;;29.51;36.16
72857;BME280;61360;52.134;4.494;2022-07-29T13:14:41;101814.50;;;29.52;33.96
72857;BME280;61360;52.134;4.494;2022-07-29T13:17:13;101823.84;;;28.79;36.50
72857;BME280;61360;52.134;4.494;2022-07-29T13:19:52;101818.53;;;29.58;36.04
72857;BME280;61360;52.134;4.494;2022-07-29T13:22:32;101818.41;;;29.59;35.72
72857;BME280;61360;52.134;4.494;2022-07-29T13:25:00;101823.16;;;30.12;34.48